Glasgow International Airport – EGPF

METAR:

EGPF 251820Z AUTO 01004KT 9999 NCD 04/02 Q1005


TAF:

TAF EGPF 251655Z 2518/2618 06008KT 9999 FEW030 PROB30 TEMPO 2606/2609 BKN014